Time;durP1;ratioP1;P1;durP2;ratioP2;P2;SDS_P1;SDS_P2;PMS_P1;PMS_P2;Temp;Humidity;BMP_temperature;BMP_pressure;BME280_temperature;BME280_humidity;BME280_pressure;Samples;Min_cycle;Max_cycle;Signal;HPM_P1;HPM_P2
2022/05/06 00:02:03;;;;;;;29.38;22.15;;;;;;;8.59;97.29;102323.78;4993769;28;20275;-50
2022/05/06 00:04:28;;;;;;;33.75;24.05;;;;;;;8.50;96.76;102314.03;5011434;28;20205;-49
2022/05/06 00:06:55;;;;;;;35.47;25.30;;;;;;;8.40;96.84;102312.31;5010752;28;20257;-52
2022/05/06 00:09:21;;;;;;;30.70;22.38;;;;;;;8.47;97.45;102318.53;5011226;28;20679;-51
2022/05/06 00:11:47;;;;;;;31.58;22.70;;;;;;;8.42;96.87;102316.75;5011233;28;20180;-50
2022/05/06 00:14:12;;;;;;;31.83;22.15;;;;;;;8.49;96.94;102314.94;5011348;28;20161;-50
2022/05/06 00:16:38;;;;;;;31.83;22.73;;;;;;;8.44;97.24;102314.09;5011514;28;20204;-49
2022/05/06 00:19:03;;;;;;;33.05;23.55;;;;;;;8.37;97.24;102315.84;5011412;28;20573;-50
2022/05/06 00:21:29;;;;;;;29.48;22.92;;;;;;;8.30;97.00;102319.44;5010546;28;20256;-48
2022/05/06 00:23:54;;;;;;;28.33;21.83;;;;;;;8.38;97.01;102316.75;5011517;28;20196;-50
2022/05/06 00:26:19;;;;;;;29.13;21.98;;;;;;;8.38;96.90;102301.63;5011163;28;20161;-50
2022/05/06 00:28:45;;;;;;;31.48;23.10;;;;;;;8.20;96.55;102315.06;5011220;28;20193;-50
2022/05/06 00:31:12;;;;;;;29.52;21.38;;;;;;;8.30;96.73;102310.56;5010941;28;20372;-52
2022/05/06 00:33:37;;;;;;;28.67;21.27;;;;;;;8.30;96.40;102308.78;5009556;28;20184;-49
2022/05/06 00:36:04;;;;;;;31.05;22.48;;;;;;;8.20;96.56;102307.06;5011197;28;20230;-51
2022/05/06 00:38:30;;;;;;;29.73;22.33;;;;;;;8.17;96.57;102309.72;5009298;28;20220;-50
2022/05/06 00:40:56;;;;;;;26.83;21.60;;;;;;;8.19;96.70;102313.28;5009780;28;20661;-52
2022/05/06 00:43:24;;;;;;;36.85;25.33;;;;;;;8.11;97.23;102318.66;5010265;28;20209;-50
2022/05/06 00:45:54;;;;;;;29.13;22.77;;;;;;;8.16;97.73;102313.31;5010998;28;20184;-50
2022/05/06 00:48:26;;;;;;;33.70;23.95;;;;;;;8.14;98.04;102307.09;5009502;28;20168;-49
2022/05/06 00:50:52;;;;;;;39.05;23.95;;;;;;;8.11;98.43;102297.31;5010329;28;20287;-48
2022/05/06 00:53:18;;;;;;;36.85;25.05;;;;;;;8.05;98.12;102302.66;5010935;28;20256;-50
2022/05/06 00:55:44;;;;;;;33.58;24.13;;;;;;;8.03;98.19;102307.13;5010620;28;20267;-50
2022/05/06 00:58:10;;;;;;;30.30;22.27;;;;;;;8.12;97.87;102307.09;5010598;28;20191;-50
2022/05/06 01:00:36;;;;;;;31.63;24.02;;;;;;;8.03;97.48;102305.34;5010266;28;20668;-50
2022/05/06 01:03:02;;;;;;;30.38;22.05;;;;;;;8.09;97.46;102306.19;5009038;28;20176;-51
2022/05/06 01:05:30;;;;;;;30.73;23.27;;;;;;;8.03;97.28;102315.13;5008952;28;20208;-51
2022/05/06 01:07:58;;;;;;;33.15;23.73;;;;;;;7.97;97.28;102308.03;5008989;28;20179;-50
2022/05/06 01:10:24;;;;;;;30.38;22.25;;;;;;;7.96;97.46;102316.94;5008875;28;20207;-51
2022/05/06 01:12:50;;;;;;;37.40;24.77;;;;;;;7.84;97.47;102317.84;5008710;28;20202;-49
2022/05/06 01:15:24;;;;;;;35.42;23.83;;;;;;;7.86;98.06;102317.84;5009131;28;20256;-50
2022/05/06 01:17:56;;;;;;;32.50;23.98;;;;;;;8.00;97.88;102318.72;5007735;28;20286;-50
2022/05/06 01:20:23;;;;;;;29.88;22.60;;;;;;;7.94;97.20;102318.72;5008581;28;20211;-49
2022/05/06 01:22:54;;;;;;;29.42;23.13;;;;;;;7.96;97.08;102316.03;4996319;28;20185;-48
2022/05/06 01:25:20;;;;;;;32.60;22.08;;;;;;;7.95;96.91;102322.28;5000652;28;20232;-50
2022/05/06 01:28:00;;;;;;;28.00;21.80;;;;;;;7.92;96.62;102320.50;5010555;28;20172;-49
2022/05/06 01:30:47;;;;;;;26.85;22.42;;;;;;;7.82;96.36;102322.28;5008242;28;20242;-51
2022/05/06 01:33:15;;;;;;;31.33;23.13;;;;;;;7.80;96.39;102326.75;5008481;28;20200;-51
2022/05/06 01:35:45;;;;;;;30.38;23.20;;;;;;;7.81;96.24;102325.00;5008500;28;20275;-49
2022/05/06 01:38:17;;;;;;;30.88;24.08;;;;;;;7.72;96.08;102330.31;5008493;28;20184;-50
2022/05/06 01:40:52;;;;;;;37.15;25.40;;;;;;;7.60;96.20;102334.81;5008589;28;20258;-50
2022/05/06 01:43:22;;;;;;;34.10;24.02;;;;;;;7.61;96.67;102331.25;5007022;28;20554;-49
2022/05/06 01:45:48;;;;;;;34.90;24.83;;;;;;;7.45;96.78;102341.94;5008402;28;20224;-49
2022/05/06 01:48:16;;;;;;;32.08;22.85;;;;;;;7.45;97.05;102326.81;5006205;28;20180;-48
2022/05/06 01:50:48;;;;;;;31.48;22.98;;;;;;;7.45;97.29;102339.28;4989007;28;20205;-46
2022/05/06 01:53:16;;;;;;;35.45;23.05;;;;;;;7.49;97.17;102338.38;4988378;28;20181;-46
2022/05/06 01:55:45;;;;;;;31.27;23.75;;;;;;;7.47;97.29;102345.50;4989304;28;20572;-47
2022/05/06 01:58:13;;;;;;;33.40;23.88;;;;;;;7.29;97.13;102336.63;4990067;28;20248;-47
2022/05/06 02:00:44;;;;;;;32.67;23.13;;;;;;;7.21;97.11;102349.06;4988455;28;20740;-46
2022/05/06 02:06:04;;;;;;;34.00;23.70;;;;;;;7.15;97.50;102341.03;4988868;28;20201;-47
2022/05/06 02:08:33;;;;;;;30.90;23.50;;;;;;;7.06;97.66;102343.72;4988300;28;20181;-48
2022/05/06 02:11:01;;;;;;;37.38;23.73;;;;;;;7.01;97.53;102339.25;4989046;28;20205;-47
2022/05/06 02:13:27;;;;;;;34.78;23.17;;;;;;;7.06;97.77;102349.03;4988129;28;20518;-47
2022/05/06 02:16:17;;;;;;;35.40;24.98;;;;;;;6.92;97.98;102341.94;4989088;28;20179;-48
2022/05/06 02:19:04;;;;;;;31.48;22.75;;;;;;;6.93;98.45;102351.72;4969028;28;20369;-46
2022/05/06 02:21:53;;;;;;;31.60;23.42;;;;;;;6.66;97.67;102346.31;4988452;28;20256;-47
2022/05/06 02:24:44;;;;;;;31.33;21.75;;;;;;;6.77;98.35;102348.13;4988695;28;20276;-46
2022/05/06 02:27:25;;;;;;;32.00;23.27;;;;;;;6.67;98.72;102348.09;4989131;28;20189;-47
2022/05/06 02:35:28;;;;;;;29.05;21.88;;;;;;;6.58;99.29;102343.63;4992259;28;20253;-46
2022/05/06 02:37:55;;;;;;;33.80;23.15;;;;;;;6.42;100.00;102348.03;4992107;28;20192;-48
2022/05/06 02:40:22;;;;;;;33.38;23.67;;;;;;;6.39;100.00;102348.03;4992159;28;20209;-47
2022/05/06 02:42:49;;;;;;;32.05;22.75;;;;;;;6.47;99.87;102342.72;4991677;28;20613;-45
2022/05/06 02:45:15;;;;;;;33.17;22.45;;;;;;;6.48;100.00;102344.50;4992213;28;20263;-48
2022/05/06 02:47:41;;;;;;;29.77;22.10;;;;;;;6.43;100.00;102351.56;4991870;28;20189;-48
2022/05/06 02:50:07;;;;;;;30.23;21.08;;;;;;;6.49;99.43;102351.59;5009527;28;20236;-48
2022/05/06 02:52:34;;;;;;;31.02;22.73;;;;;;;6.42;99.35;102350.69;5011532;28;20204;-47
2022/05/06 02:55:00;;;;;;;28.05;21.13;;;;;;;6.37;98.43;102347.13;5011183;28;20652;-48
2022/05/06 02:57:27;;;;;;;30.42;21.83;;;;;;;6.22;98.72;102339.97;5012011;28;20268;-49
2022/05/06 02:59:53;;;;;;;30.80;22.15;;;;;;;6.26;99.11;102343.53;5011490;28;20197;-47
2022/05/06 03:02:23;;;;;;;35.70;23.55;;;;;;;6.09;99.22;102339.03;5011873;28;20188;-48
2022/05/06 03:04:49;;;;;;;31.00;22.15;;;;;;;6.21;99.91;102353.25;5011728;28;20219;-45
2022/05/06 03:07:17;;;;;;;29.58;21.73;;;;;;;6.22;99.68;102336.44;5011374;28;20177;-46
2022/05/06 03:09:47;;;;;;;32.92;23.90;;;;;;;6.06;99.88;102339.03;5011518;28;20629;-48
2022/05/06 03:12:15;;;;;;;34.78;22.83;;;;;;;6.02;100.00;102342.53;5011520;28;20161;-51
2022/05/06 03:14:58;;;;;;;27.77;20.60;;;;;;;6.21;100.00;102334.63;5011958;28;20176;-46
2022/05/06 03:17:34;;;;;;;32.30;23.02;;;;;;;6.16;100.00;102343.47;5011552;28;20175;-49
2022/05/06 03:20:01;;;;;;;31.20;21.15;;;;;;;6.21;100.00;102340.88;5011505;28;20232;-45
2022/05/06 03:22:39;;;;;;;30.70;22.48;;;;;;;6.21;99.41;102343.53;5011409;28;20706;-46
2022/05/06 03:25:05;;;;;;;30.67;21.15;;;;;;;6.25;99.17;102344.41;5012372;28;20201;-47
2022/05/06 03:30:15;;;;;;;26.98;19.90;;;;;;;6.10;98.84;102338.16;5012355;28;20200;-49
2022/05/06 03:32:43;;;;;;;28.02;20.70;;;;;;;6.11;99.13;102339.91;5012382;28;20214;-45
2022/05/06 03:35:09;;;;;;;33.58;22.55;;;;;;;6.16;98.66;102340.81;5010731;28;20654;-49
2022/05/06 03:37:39;;;;;;;33.72;23.55;;;;;;;6.01;98.38;102342.53;5010919;28;20208;-48
2022/05/06 03:40:07;;;;;;;33.90;22.27;;;;;;;5.97;98.86;102339.88;5010704;28;20574;-48
2022/05/06 03:42:34;;;;;;;31.10;22.05;;;;;;;6.04;99.46;102351.44;5010690;28;20177;-47
2022/05/06 03:45:02;;;;;;;29.40;21.38;;;;;;;6.12;99.46;102338.13;5010766;28;20207;-47
2022/05/06 03:47:28;;;;;;;31.40;20.90;;;;;;;5.97;99.28;102334.53;5010080;28;20654;-46
2022/05/06 03:52:42;;;;;;;28.90;20.40;;;;;;;6.04;99.03;102351.44;5001442;28;20196;-47
2022/05/06 03:55:08;;;;;;;25.77;20.52;;;;;;;6.05;98.81;102339.88;5012144;28;20180;-47
2022/05/06 03:57:34;;;;;;;27.95;20.08;;;;;;;6.03;98.69;102339.00;5011630;28;20661;-48
2022/05/06 04:00:00;;;;;;;30.58;21.05;;;;;;;5.95;98.67;102346.94;5011194;28;20338;-47
2022/05/06 04:02:30;;;;;;;28.60;21.02;;;;;;;5.98;98.77;102344.28;5011798;28;20608;-47
2022/05/06 04:04:55;;;;;;;32.17;23.08;;;;;;;5.89;98.90;102341.56;5011479;28;20189;-46
2022/05/06 04:07:22;;;;;;;30.52;20.70;;;;;;;5.88;99.09;102346.84;5010288;28;20215;-46
2022/05/06 04:09:49;;;;;;;30.67;21.25;;;;;;;5.87;99.20;102345.09;5010072;28;20759;-50
2022/05/06 04:12:15;;;;;;;29.98;22.15;;;;;;;5.90;99.84;102343.34;5010208;28;20279;-48
2022/05/06 04:14:48;;;;;;;37.25;24.52;;;;;;;5.88;100.00;102345.13;5010131;28;20599;-47
2022/05/06 04:17:14;;;;;;;33.63;23.55;;;;;;;5.85;100.00;102350.41;5010247;28;20173;-48
2022/05/06 04:23:29;;;;;;;31.85;22.70;;;;;;;5.82;100.00;102350.38;5009980;28;20274;-48
2022/05/06 04:25:22;;;;;;;33.88;21.13;;;;;;;6.19;100.00;102348.84;5009650;28;20204;-49
2022/05/06 04:27:50;;;;;;;34.47;23.23;;;;;;;6.21;100.00;102351.50;5009973;28;20173;-51
2022/05/06 04:30:16;;;;;;;29.27;21.23;;;;;;;6.35;100.00;102344.44;5010139;28;20201;-48
2022/05/06 04:32:53;;;;;;;30.80;22.48;;;;;;;6.41;100.00;102346.25;5010265;28;20640;-46
2022/05/06 04:35:19;;;;;;;32.10;23.20;;;;;;;6.54;100.00;102350.75;4993626;28;20189;-46
2022/05/06 04:37:45;;;;;;;34.72;23.08;;;;;;;6.60;99.93;102358.75;5011243;28;20163;-47
2022/05/06 04:40:12;;;;;;;31.00;22.20;;;;;;;6.84;100.00;102356.13;4993462;28;20287;-46
2022/05/06 04:42:39;;;;;;;34.88;23.35;;;;;;;7.00;100.00;102355.28;5009949;28;20215;-48
2022/05/06 04:45:05;;;;;;;36.88;23.45;;;;;;;7.11;99.55;102358.84;5009626;28;20232;-50
2022/05/06 04:47:37;;;;;;;34.38;22.88;;;;;;;7.24;99.81;102359.72;5010005;28;20176;-46
2022/05/06 04:50:04;;;;;;;30.85;21.88;;;;;;;7.33;99.66;102358.84;5009681;28;20193;-48
2022/05/06 04:52:31;;;;;;;31.83;23.10;;;;;;;7.49;99.53;102359.72;5010546;28;20639;-51
2022/05/06 04:54:57;;;;;;;29.40;22.23;;;;;;;7.59;99.06;102364.16;5009848;28;20231;-47
2022/05/06 04:57:23;;;;;;;31.88;22.63;;;;;;;7.55;99.14;102365.06;5010807;28;20160;-49
2022/05/06 04:59:49;;;;;;;34.15;24.40;;;;;;;7.78;99.27;102357.00;5009584;28;20287;-49
2022/05/06 05:02:17;;;;;;;32.63;21.75;;;;;;;8.00;99.45;102356.06;5009431;28;20192;-49
2022/05/06 05:04:44;;;;;;;42.10;26.70;;;;;;;8.14;99.31;102353.34;5009417;28;20687;-48
2022/05/06 05:07:14;;;;;;;38.03;24.67;;;;;;;8.33;99.64;102359.50;5009402;28;20204;-47
2022/05/06 05:09:48;;;;;;;38.13;24.42;;;;;;;8.51;99.40;102350.56;5009220;28;20195;-46
2022/05/06 05:12:18;;;;;;;32.10;23.35;;;;;;;8.66;99.31;102355.81;5009482;28;20324;-48
2022/05/06 05:14:47;;;;;;;41.08;26.27;;;;;;;8.82;99.29;102353.03;5009306;28;20165;-47
2022/05/06 05:17:17;;;;;;;35.08;23.77;;;;;;;8.94;99.52;102354.72;5010766;28;20161;-47
2022/05/06 05:19:44;;;;;;;37.55;25.40;;;;;;;9.01;99.42;102365.38;5010719;28;20200;-47
2022/05/06 05:22:10;;;;;;;37.40;25.50;;;;;;;9.11;100.00;102359.97;5009290;28;20543;-46
2022/05/06 05:24:36;;;;;;;42.88;27.95;;;;;;;9.02;100.00;102374.28;5009409;28;20200;-48
2022/05/06 05:27:02;;;;;;;39.08;26.17;;;;;;;9.17;100.00;102359.94;5009089;28;20175;-47
2022/05/06 05:29:31;;;;;;;36.38;26.52;;;;;;;9.29;100.00;102373.19;5009355;28;20196;-47
2022/05/06 05:31:57;;;;;;;40.50;27.55;;;;;;;9.19;100.00;102368.81;5010882;28;20177;-48
2022/05/06 05:34:23;;;;;;;37.75;25.85;;;;;;;8.99;100.00;102366.31;4993063;28;20184;-46
2022/05/06 05:36:49;;;;;;;42.60;27.75;;;;;;;8.85;100.00;102364.63;5008878;28;20643;-47
2022/05/06 05:39:15;;;;;;;45.00;27.98;;;;;;;9.01;100.00;102373.41;5009195;28;20177;-48
2022/05/06 05:41:41;;;;;;;38.30;26.10;;;;;;;9.00;100.00;102368.06;5009232;28;20176;-47
2022/05/06 05:49:37;;;;;;;37.63;24.80;;;;;;;9.17;100.00;102366.16;5008878;28;20567;-49
2022/05/06 05:52:03;;;;;;;38.40;25.27;;;;;;;9.03;100.00;102362.69;5009233;28;20184;-47
2022/05/06 05:54:30;;;;;;;38.30;25.63;;;;;;;8.89;100.00;102361.91;5008128;28;20189;-47
2022/05/06 05:56:57;;;;;;;40.72;25.75;;;;;;;8.77;100.00;102362.88;5008529;28;20535;-49
2022/05/06 05:59:24;;;;;;;43.97;26.88;;;;;;;8.72;100.00;102372.69;5008467;28;20196;-47
2022/05/06 06:01:50;;;;;;;41.45;26.98;;;;;;;8.95;100.00;102369.91;5008240;28;20648;-46
2022/05/06 06:04:17;;;;;;;40.30;27.38;;;;;;;8.84;100.00;102369.97;5009732;28;20200;-51
2022/05/06 06:06:44;;;;;;;36.80;26.65;;;;;;;9.14;100.00;102373.31;5012260;28;20180;-45
2022/05/06 06:09:12;;;;;;;37.30;24.15;;;;;;;9.60;100.00;102370.22;5013043;28;20169;-46
2022/05/06 06:11:38;;;;;;;36.35;25.98;;;;;;;9.61;100.00;102377.38;5012642;28;20391;-45
2022/05/06 06:14:06;;;;;;;40.25;25.75;;;;;;;9.75;100.00;102375.47;5012789;28;20180;-45
2022/05/06 06:16:31;;;;;;;37.47;24.52;;;;;;;9.84;99.73;102371.81;5012487;28;20177;-50
2022/05/06 06:18:58;;;;;;;34.65;23.90;;;;;;;10.15;98.22;102360.75;5012396;28;20172;-47
2022/05/06 06:21:25;;;;;;;34.67;23.83;;;;;;;10.16;96.71;102379.47;5012834;28;20165;-47
2022/05/06 06:23:51;;;;;;;33.55;24.02;;;;;;;10.02;95.56;102365.38;5012520;28;20180;-47
2022/05/06 06:26:17;;;;;;;34.65;23.63;;;;;;;10.42;94.06;102372.94;5013931;28;20636;-47
2022/05/06 06:28:43;;;;;;;31.50;22.63;;;;;;;10.34;93.30;102373.03;5012461;28;20173;-50
2022/05/06 06:31:12;;;;;;;34.83;23.58;;;;;;;10.00;93.59;102380.56;5012459;28;20205;-46
2022/05/06 06:33:38;;;;;;;28.90;22.85;;;;;;;10.05;93.81;102379.59;5012564;28;20165;-49
2022/05/06 06:36:07;;;;;;;33.55;22.70;;;;;;;10.34;94.17;102373.03;5011986;28;20181;-49
2022/05/06 06:38:33;;;;;;;32.30;22.80;;;;;;;10.27;94.17;102382.91;5012399;28;20188;-46
2022/05/06 06:40:59;;;;;;;30.25;22.67;;;;;;;10.64;94.19;102378.91;5011756;28;20865;-48
2022/05/06 06:43:25;;;;;;;29.77;23.88;;;;;;;10.81;93.30;102386.72;5013604;28;20259;-46
2022/05/06 06:46:26;;;;;;;33.35;23.27;;;;;;;10.34;92.84;102386.44;5001909;28;20211;-50
2022/05/06 06:49:12;;;;;;;28.60;21.75;;;;;;;10.59;91.90;102378.97;4991325;28;20197;-46
2022/05/06 06:52:00;;;;;;;28.02;22.00;;;;;;;10.59;91.36;102370.94;4998711;28;20356;-49
2022/05/06 06:54:26;;;;;;;30.42;22.10;;;;;;;11.11;91.31;102375.53;5014113;28;20723;-46
2022/05/06 06:56:51;;;;;;;28.27;21.17;;;;;;;11.70;89.45;102364.69;5013466;28;20165;-45
2022/05/06 06:59:17;;;;;;;30.08;22.55;;;;;;;11.70;86.92;102372.75;5011776;28;20616;-49
2022/05/06 07:01:42;;;;;;;27.95;20.98;;;;;;;12.46;85.96;102364.13;5013577;28;20220;-45
2022/05/06 07:04:07;;;;;;;26.60;20.77;;;;;;;12.16;84.24;102362.97;5013664;28;20185;-48
2022/05/06 07:12:01;;;;;;;29.02;23.20;;;;;;;12.07;82.26;102361.34;5013633;28;20176;-46
2022/05/06 07:14:33;;;;;;;28.40;21.50;;;;;;;11.87;83.21;102363.50;5011974;28;20219;-49
2022/05/06 07:16:59;;;;;;;26.55;21.17;;;;;;;12.17;83.54;102372.78;5012853;28;20192;-47
2022/05/06 07:19:24;;;;;;;26.75;20.70;;;;;;;12.66;82.28;102361.00;5013470;28;20193;-45
2022/05/06 07:21:51;;;;;;;31.15;21.15;;;;;;;12.82;80.74;102368.72;5012646;28;20248;-48
2022/05/06 07:24:17;;;;;;;27.55;21.08;;;;;;;12.45;81.03;102369.53;5013074;28;20185;-46
2022/05/06 07:26:42;;;;;;;27.25;20.52;;;;;;;12.59;80.97;102372.78;5011453;28;20244;-47
2022/05/06 07:29:08;;;;;;;24.42;19.65;;;;;;;12.90;79.37;102370.31;5012910;28;20252;-47
2022/05/06 07:31:33;;;;;;;26.60;20.42;;;;;;;13.17;79.42;102366.06;5013037;28;20197;-47
2022/05/06 07:33:59;;;;;;;26.60;20.80;;;;;;;13.62;78.23;102362.28;5012422;28;20628;-47
2022/05/06 07:36:24;;;;;;;24.23;19.83;;;;;;;13.33;77.97;102376.50;5012315;28;20165;-47
2022/05/06 07:38:50;;;;;;;30.80;20.52;;;;;;;13.60;76.85;102367.72;5010889;28;20172;-47
2022/05/06 07:41:16;;;;;;;25.67;19.15;;;;;;;13.76;77.22;102359.22;5012137;28;20631;-46
2022/05/06 07:43:41;;;;;;;23.95;20.00;;;;;;;13.99;76.02;102358.59;5011542;28;20586;-47
2022/05/06 07:46:09;;;;;;;21.38;17.60;;;;;;;14.43;74.86;102361.84;5012118;28;20161;-47
2022/05/06 07:48:36;;;;;;;22.05;17.08;;;;;;;14.07;73.95;102361.06;5011790;28;20221;-47
2022/05/06 07:51:01;;;;;;;21.65;17.23;;;;;;;14.53;73.74;102355.22;5011410;28;20216;-49
2022/05/06 07:53:26;;;;;;;19.58;15.90;;;;;;;14.56;72.91;102359.66;5011130;28;20547;-47
2022/05/06 07:55:52;;;;;;;19.55;16.70;;;;;;;14.98;72.47;102362.84;5011486;28;20227;-48
2022/05/06 07:58:17;;;;;;;20.38;17.30;;;;;;;14.84;71.05;102355.16;5010498;28;20173;-45
2022/05/06 08:00:43;;;;;;;21.65;17.20;;;;;;;15.10;70.69;102353.44;5011721;28;20208;-45
2022/05/06 08:05:57;;;;;;;19.42;16.35;;;;;;;14.34;72.27;102354.91;5011504;28;20193;-45
2022/05/06 08:08:25;;;;;;;18.02;15.38;;;;;;;14.72;72.01;102360.97;5011483;28;20173;-45
2022/05/06 08:10:51;;;;;;;23.83;17.17;;;;;;;14.66;70.50;102355.75;5011678;28;20567;-45
2022/05/06 08:13:17;;;;;;;23.75;16.85;;;;;;;14.62;72.26;102359.47;5011224;28;20168;-46
2022/05/06 08:15:43;;;;;;;20.02;16.40;;;;;;;15.59;70.19;102350.91;5011210;28;20192;-46
2022/05/06 08:18:09;;;;;;;19.05;16.08;;;;;;;15.62;67.41;102340.88;5011202;28;20165;-47
2022/05/06 08:20:35;;;;;;;18.65;15.75;;;;;;;16.24;66.73;102350.34;5011286;28;20254;-47
2022/05/06 08:23:00;;;;;;;20.00;16.15;;;;;;;16.15;65.53;102350.72;5011311;28;20530;-47
2022/05/06 08:25:27;;;;;;;20.70;16.50;;;;;;;15.51;68.36;102347.59;5010713;28;20185;-46
2022/05/06 08:27:53;;;;;;;18.55;15.40;;;;;;;16.13;68.82;102338.19;5010610;28;20272;-49
2022/05/06 08:30:18;;;;;;;23.65;16.98;;;;;;;15.79;67.98;102332.22;5011072;28;20655;-48
2022/05/06 08:32:44;;;;;;;19.88;16.25;;;;;;;15.35;67.96;102344.53;5010977;28;20277;-47
2022/05/06 08:35:10;;;;;;;20.23;16.70;;;;;;;15.39;70.45;102348.88;5011073;28;20537;-46
2022/05/06 08:37:41;;;;;;;20.95;16.85;;;;;;;15.38;69.21;102347.13;5010972;28;20273;-45
2022/05/06 08:40:09;;;;;;;21.02;16.77;;;;;;;15.34;69.56;102340.06;5011035;28;20255;-48
2022/05/06 08:42:34;;;;;;;20.65;16.33;;;;;;;15.91;68.55;102340.81;5009547;28;20176;-48
2022/05/06 08:53:13;;;;;;;22.60;17.90;;;;;;;16.24;67.63;102333.25;4988939;28;20189;-45
2022/05/06 08:55:39;;;;;;;18.38;15.68;;;;;;;17.21;66.83;102333.03;4991462;28;20178;-46
2022/05/06 08:58:06;;;;;;;22.23;17.80;;;;;;;16.77;66.86;102340.22;4990980;28;20613;-47
2022/05/06 09:00:31;;;;;;;22.13;18.15;;;;;;;16.48;67.69;102335.00;4990956;28;20540;-47
2022/05/06 09:02:57;;;;;;;27.88;19.27;;;;;;;16.15;69.50;102342.59;4990422;28;20195;-47
2022/05/06 09:05:22;;;;;;;23.23;18.08;;;;;;;16.48;69.07;102337.72;4991094;28;20198;-45
2022/05/06 09:08:02;;;;;;;23.45;18.70;;;;;;;16.95;69.53;102341.34;4991090;28;20165;-44
2022/05/06 09:10:29;;;;;;;24.05;19.63;;;;;;;16.45;71.30;102343.25;4990746;28;20264;-43
2022/05/06 09:13:00;;;;;;;22.27;19.90;;;;;;;16.94;69.62;102329.63;4991174;28;20170;-45
2022/05/06 09:18:10;;;;;;;24.13;19.25;;;;;;;17.06;70.43;102348.09;4990688;28;20214;-42
2022/05/06 09:20:36;;;;;;;24.70;19.92;;;;;;;16.47;72.12;102354.91;4991004;28;20201;-45
2022/05/06 09:23:25;;;;;;;25.50;20.73;;;;;;;16.36;70.87;102349.03;4990331;28;20173;-44
2022/05/06 09:25:52;;;;;;;23.90;20.30;;;;;;;16.96;69.73;102353.94;4990682;28;20256;-44
2022/05/06 09:28:26;;;;;;;24.30;20.88;;;;;;;16.78;70.75;102347.41;4990378;28;20173;-42
2022/05/06 09:31:08;;;;;;;25.70;19.42;;;;;;;17.18;70.12;102352.09;4989194;28;20205;-41
2022/05/06 09:33:37;;;;;;;22.13;19.58;;;;;;;16.71;69.93;102354.03;4990144;28;20169;-47
2022/05/06 09:36:29;;;;;;;21.35;19.05;;;;;;;16.74;71.53;102362.88;4990765;28;20200;-48
2022/05/06 09:39:02;;;;;;;20.75;17.55;;;;;;;17.08;68.88;102354.31;4989988;28;20169;-43
2022/05/06 09:41:29;;;;;;;22.02;17.67;;;;;;;17.37;67.91;102346.78;4991304;28;20231;-43
2022/05/06 09:44:01;;;;;;;22.95;18.08;;;;;;;16.95;69.02;102346.78;4991328;28;20212;-45
2022/05/06 09:46:27;;;;;;;19.58;16.63;;;;;;;17.59;67.57;102344.03;4991185;28;20177;-43
2022/05/06 09:48:57;;;;;;;22.25;18.05;;;;;;;16.74;68.40;102343.06;4998420;28;20188;-44
2022/05/06 09:51:33;;;;;;;20.75;16.95;;;;;;;16.80;69.33;102349.13;5009006;28;20200;-43
2022/05/06 09:54:00;;;;;;;20.23;17.27;;;;;;;17.44;67.73;102345.56;5010794;28;20640;-45
2022/05/06 09:56:27;;;;;;;22.63;17.83;;;;;;;16.91;69.62;102339.72;5010787;28;20173;-46
2022/05/06 09:58:54;;;;;;;20.20;18.00;;;;;;;17.52;68.86;102339.84;5010495;28;20323;-46
2022/05/06 10:01:21;;;;;;;19.95;17.67;;;;;;;17.58;69.16;102345.00;4992560;28;20709;-45
2022/05/06 10:03:47;;;;;;;20.67;18.48;;;;;;;18.12;66.00;102338.06;5010120;28;20181;-44
2022/05/06 10:06:13;;;;;;;20.90;17.35;;;;;;;17.58;67.71;102336.88;5010579;28;20624;-44
2022/05/06 10:08:51;;;;;;;21.52;17.63;;;;;;;16.85;68.49;102333.59;5010284;28;20196;-45
2022/05/06 10:11:25;;;;;;;19.42;16.92;;;;;;;17.37;68.45;102333.25;5010330;28;20203;-46
2022/05/06 10:13:52;;;;;;;20.77;18.35;;;;;;;16.73;69.82;102334.06;5010146;28;20203;-45
2022/05/06 10:16:18;;;;;;;22.13;16.70;;;;;;;17.26;68.76;102333.69;5010787;28;20645;-45
2022/05/06 10:18:44;;;;;;;21.77;18.98;;;;;;;16.69;68.92;102340.53;5010096;28;20256;-44
2022/05/06 10:21:11;;;;;;;22.83;18.13;;;;;;;16.84;69.87;102337.25;5010242;28;20722;-42
2022/05/06 10:23:52;;;;;;;22.30;18.50;;;;;;;16.19;69.74;102336.13;5008835;28;20614;-44
2022/05/06 10:26:42;;;;;;;22.83;17.30;;;;;;;16.13;72.80;102339.06;5009983;28;20204;-45
2022/05/06 10:35:05;;;;;;;24.17;19.17;;;;;;;16.31;77.95;102326.69;5010368;28;20161;-44
2022/05/06 10:37:39;;;;;;;28.02;19.48;;;;;;;15.68;77.45;102323.56;5009790;28;20646;-44
2022/05/06 10:40:23;;;;;;;28.40;19.88;;;;;;;15.57;78.60;102314.97;5009998;28;20211;-44
2022/05/06 10:42:49;;;;;;;30.88;21.67;;;;;;;15.25;78.59;102323.25;5009700;28;20327;-43
2022/05/06 10:45:31;;;;;;;29.63;21.80;;;;;;;15.36;78.31;102322.88;5009976;28;20283;-46
2022/05/06 10:47:56;;;;;;;28.95;21.05;;;;;;;15.51;78.47;102315.19;5009838;28;20519;-43
2022/05/06 10:50:25;;;;;;;30.23;21.30;;;;;;;15.89;77.74;102312.94;5011950;28;20207;-45
2022/05/06 10:52:51;;;;;;;28.73;20.50;;;;;;;15.78;76.42;102307.94;5013720;28;20169;-41
2022/05/06 10:55:19;;;;;;;28.35;20.27;;;;;;;16.02;77.46;102300.75;5013429;28;20597;-43
2022/05/06 10:57:48;;;;;;;27.65;20.88;;;;;;;16.12;74.96;102312.09;5013571;28;20193;-45
2022/05/06 11:00:14;;;;;;;27.38;19.60;;;;;;;16.98;73.21;102296.06;5013095;28;20185;-44
2022/05/06 11:02:40;;;;;;;25.83;20.05;;;;;;;17.34;73.09;102298.16;5013308;28;20685;-45
2022/05/06 11:05:08;;;;;;;24.83;18.42;;;;;;;17.57;69.63;102283.59;5013428;28;20184;-43
2022/05/06 11:07:36;;;;;;;26.67;18.27;;;;;;;17.65;67.77;102280.56;5013580;28;20187;-45
2022/05/06 11:10:11;;;;;;;23.38;17.80;;;;;;;18.32;65.00;102288.34;5013346;28;20188;-43
2022/05/06 11:12:38;;;;;;;21.60;16.63;;;;;;;17.88;64.83;102277.69;5013376;28;20172;-45
2022/05/06 11:15:06;;;;;;;22.52;17.10;;;;;;;18.34;62.70;102277.38;5013195;28;20550;-46
2022/05/06 11:17:33;;;;;;;23.40;15.98;;;;;;;18.16;63.14;102278.25;5013132;28;20226;-45
2022/05/06 11:20:03;;;;;;;21.05;16.63;;;;;;;18.31;62.78;102266.69;5013349;28;20192;-45
2022/05/06 11:22:33;;;;;;;18.58;14.98;;;;;;;18.60;63.50;102267.09;5013549;28;20651;-45
2022/05/06 11:24:59;;;;;;;19.45;16.50;;;;;;;18.55;60.89;102259.19;5013217;28;20261;-46
2022/05/06 11:27:25;;;;;;;20.00;16.15;;;;;;;17.57;64.85;102269.19;5012882;28;20174;-46
2022/05/06 11:29:56;;;;;;;21.20;16.45;;;;;;;17.27;65.95;102274.97;5012704;28;20291;-46
2022/05/06 11:32:29;;;;;;;18.88;14.98;;;;;;;17.96;64.56;102265.63;5013100;28;20599;-45
2022/05/06 11:34:57;;;;;;;18.90;15.95;;;;;;;17.99;64.92;102260.06;5012730;28;20215;-44
2022/05/06 11:37:28;;;;;;;22.13;17.17;;;;;;;17.76;63.77;102252.97;5012967;28;20635;-45
2022/05/06 11:40:39;;;;;;;20.48;16.35;;;;;;;17.43;64.46;102257.13;5012977;28;20735;-46
2022/05/06 11:42:40;;;;;;;19.65;15.00;;;;;;;17.76;65.07;102258.41;5005245;28;20203;-46
2022/05/06 11:47:51;;;;;;;22.67;14.98;;;;;;;17.33;63.85;102260.31;5012578;28;20177;-46
2022/05/06 11:50:17;;;;;;;17.73;15.65;;;;;;;17.25;66.61;102269.66;5012391;28;20215;-44
2022/05/06 11:52:46;;;;;;;19.98;15.20;;;;;;;17.02;66.21;102261.63;5012805;28;20169;-45
2022/05/06 11:55:14;;;;;;;16.08;13.88;;;;;;;17.72;64.54;102263.06;5012475;28;20247;-43
2022/05/06 11:57:40;;;;;;;20.30;14.07;;;;;;;17.75;64.53;102254.78;5012508;28;20619;-44
2022/05/06 12:00:08;;;;;;;20.17;15.00;;;;;;;17.75;63.61;102251.19;5011066;28;20201;-46
2022/05/06 12:02:48;;;;;;;17.35;13.45;;;;;;;17.85;63.69;102242.59;5011603;28;20195;-44
2022/05/06 12:05:13;;;;;;;16.05;14.10;;;;;;;18.16;62.57;102248.44;5012119;28;20287;-43
2022/05/06 12:07:48;;;;;;;21.27;14.48;;;;;;;17.79;62.23;102242.84;5012501;28;20215;-45
2022/05/06 12:10:32;;;;;;;16.70;13.40;;;;;;;17.84;62.85;102235.44;5010729;28;20207;-44